Time;durP1;ratioP1;P1;durP2;ratioP2;P2;SDS_P1;SDS_P2;PMS_P1;PMS_P2;Temp;Humidity;BMP_temperature;BMP_pressure;BME280_temperature;BME280_humidity;BME280_pressure;Samples;Min_cycle;Max_cycle;Signal;HPM_P1;HPM_P2
2022/02/05 00:00:15;;;;;;;9.73;1.52;;;5.50;99.90;;;;;;5078164;28;20101;-84
2022/02/05 00:02:34;;;;;;;7.43;2.05;;;5.50;99.90;;;;;;5079004;28;20114;-83
2022/02/05 00:05:00;;;;;;;8.52;1.92;;;5.40;99.90;;;;;;5061415;28;20445;-84
2022/02/05 00:07:28;;;;;;;8.85;1.73;;;5.50;99.90;;;;;;5057755;28;20029;-84
2022/02/05 00:39:52;;;;;;;9.90;1.92;;;5.50;99.90;;;;;;5060263;28;20043;-84
2022/02/05 00:42:26;;;;;;;13.70;3.58;;;5.50;99.90;;;;;;5073210;28;20040;-84
2022/02/05 00:44:53;;;;;;;9.07;2.45;;;5.50;99.90;;;;;;5059894;28;20130;-83
2022/02/05 00:47:18;;;;;;;9.38;2.20;;;5.50;99.90;;;;;;5073445;28;20465;-84
2022/02/05 00:49:48;;;;;;;11.80;2.47;;;5.40;99.90;;;;;;5073505;28;20039;-84
2022/02/05 00:52:16;;;;;;;8.70;2.10;;;5.50;99.90;;;;;;5073966;28;20433;-84
2022/02/05 00:54:47;;;;;;;9.68;2.05;;;5.50;99.90;;;;;;5073753;28;20039;-84
2022/02/05 00:59:53;;;;;;;8.30;2.60;;;5.50;99.90;;;;;;5058952;28;20028;-84
2022/02/05 01:02:18;;;;;;;11.90;3.15;;;5.50;99.90;;;;;;5073338;28;20028;-84
2022/02/05 01:04:44;;;;;;;10.10;2.45;;;5.50;99.90;;;;;;5073374;28;20032;-84
2022/02/05 01:07:10;;;;;;;11.07;2.53;;;5.50;99.90;;;;;;5056733;28;20029;-85
2022/02/05 01:09:36;;;;;;;8.95;2.35;;;5.50;99.90;;;;;;5073270;28;20029;-83
2022/02/05 01:12:03;;;;;;;11.85;2.58;;;5.50;99.90;;;;;;5056815;28;20587;-84
2022/02/05 01:14:42;;;;;;;9.13;2.00;;;5.50;99.90;;;;;;5057539;28;20354;-84
2022/02/05 01:17:10;;;;;;;6.75;2.20;;;5.40;99.90;;;;;;5061371;28;20121;-85
2022/02/05 01:22:03;;;;;;;11.07;3.13;;;5.50;99.90;;;;;;5094615;28;20114;-84
2022/02/05 01:24:30;;;;;;;9.57;2.08;;;5.40;99.90;;;;;;5076728;28;20028;-84
2022/02/05 01:27:03;;;;;;;11.35;2.28;;;5.50;99.90;;;;;;5025988;28;20039;-84
2022/02/05 01:32:15;;;;;;;11.68;1.85;;;5.40;99.90;;;;;;5074110;28;20043;-84
2022/02/05 01:35:10;;;;;;;10.18;2.22;;;5.40;99.90;;;;;;5041517;28;20039;-84
2022/02/05 02:15:42;;;;;;;8.32;1.73;;;5.30;99.90;;;;;;5073270;28;20070;-85
2022/02/05 02:31:27;;;;;;;12.20;1.90;;;5.20;99.90;;;;;;4995890;28;20040;-85
2022/02/05 02:33:59;;;;;;;12.73;1.63;;;5.20;99.90;;;;;;5039850;28;20036;-84
2022/02/05 02:36:40;;;;;;;11.82;1.90;;;5.20;99.90;;;;;;5054512;28;20150;-84
2022/02/05 02:39:14;;;;;;;12.85;1.92;;;5.20;99.90;;;;;;5040693;28;20052;-83
2022/02/05 02:41:54;;;;;;;11.57;1.83;;;5.20;99.90;;;;;;5038904;28;20071;-83
2022/02/05 02:44:20;;;;;;;11.68;2.00;;;5.20;99.90;;;;;;5054980;28;20086;-84
2022/02/05 02:46:46;;;;;;;6.97;1.52;;;5.20;99.90;;;;;;5054782;28;20029;-83
2022/02/05 02:49:16;;;;;;;11.85;1.80;;;5.10;99.90;;;;;;5053948;28;20028;-84
2022/02/05 02:57:21;;;;;;;8.48;2.17;;;5.10;99.90;;;;;;5077951;28;20039;-84
2022/02/05 02:59:52;;;;;;;9.63;1.70;;;5.10;99.90;;;;;;5076778;28;20066;-84
2022/02/05 03:02:21;;;;;;;10.98;2.00;;;5.10;99.90;;;;;;5059287;28;20030;-83
2022/02/05 03:04:48;;;;;;;9.00;1.85;;;5.10;99.90;;;;;;5074845;28;20032;-84
2022/02/05 03:07:25;;;;;;;12.38;2.17;;;5.10;99.90;;;;;;5076285;28;20472;-89
2022/02/05 03:09:52;;;;;;;11.82;2.17;;;5.10;99.90;;;;;;5041671;28;20482;-84
2022/02/05 03:12:19;;;;;;;6.85;1.42;;;5.10;99.90;;;;;;5074952;28;20472;-84
2022/02/05 03:14:45;;;;;;;11.80;2.78;;;5.10;99.90;;;;;;5074576;28;20032;-84
2022/02/05 03:17:19;;;;;;;10.63;1.77;;;5.10;99.90;;;;;;5074823;28;20093;-84
2022/02/05 03:19:47;;;;;;;6.88;1.88;;;5.10;99.90;;;;;;5059205;28;20032;-85
2022/02/05 03:22:15;;;;;;;12.57;1.63;;;5.20;99.90;;;;;;5092686;28;20048;-85
2022/02/05 03:24:41;;;;;;;6.55;1.65;;;5.20;99.90;;;;;;5092571;28;20028;-84
2022/02/05 03:27:08;;;;;;;11.43;2.33;;;5.20;99.90;;;;;;5057988;28;20028;-84
2022/02/05 03:29:34;;;;;;;12.32;2.00;;;5.20;99.90;;;;;;5074381;28;20066;-84
2022/02/05 03:32:00;;;;;;;10.65;1.77;;;5.20;99.90;;;;;;5075575;28;20400;-84
2022/02/05 03:34:25;;;;;;;13.85;2.15;;;5.20;99.90;;;;;;5059662;28;20028;-84
2022/02/05 03:36:51;;;;;;;9.38;1.63;;;5.20;99.90;;;;;;5092274;28;20044;-84
2022/02/05 03:39:17;;;;;;;10.85;1.67;;;5.20;99.90;;;;;;5057795;28;20384;-84
2022/02/05 03:41:42;;;;;;;15.48;2.70;;;5.20;99.90;;;;;;5074492;28;20047;-84
2022/02/05 03:44:08;;;;;;;9.85;2.13;;;5.20;99.90;;;;;;5057689;28;20024;-84
2022/02/05 03:46:33;;;;;;;11.45;1.80;;;5.20;99.90;;;;;;5074176;28;20126;-85
2022/02/05 03:48:59;;;;;;;12.55;1.95;;;5.30;99.90;;;;;;5074647;28;20488;-84
2022/02/05 03:51:25;;;;;;;10.98;1.92;;;5.30;99.90;;;;;;5074385;28;20475;-84
2022/02/05 03:53:53;;;;;;;13.77;2.28;;;5.20;99.90;;;;;;5060782;28;20040;-84
2022/02/05 03:56:19;;;;;;;11.40;2.00;;;5.20;99.90;;;;;;5061547;28;20031;-84
2022/02/05 03:58:44;;;;;;;11.13;2.47;;;5.20;99.90;;;;;;5061022;28;20024;-84
2022/02/05 04:01:10;;;;;;;11.40;2.03;;;5.20;99.90;;;;;;5061304;28;20381;-83
2022/02/05 04:03:35;;;;;;;15.75;2.22;;;5.20;99.90;;;;;;5060887;28;20032;-84
2022/02/05 04:06:01;;;;;;;10.07;1.70;;;5.20;99.90;;;;;;5077733;28;20035;-84
2022/02/05 04:08:27;;;;;;;10.57;1.98;;;5.20;99.90;;;;;;5077126;28;20036;-83
2022/02/05 04:11:04;;;;;;;7.70;1.73;;;5.20;99.90;;;;;;5077319;28;20123;-84
2022/02/05 04:16:22;;;;;;;10.32;1.70;;;5.20;99.90;;;;;;5066269;28;20471;-85
2022/02/05 04:18:56;;;;;;;13.32;1.70;;;5.20;99.90;;;;;;5046378;28;20024;-84
2022/02/05 04:21:23;;;;;;;8.57;1.77;;;5.20;99.90;;;;;;5077347;28;20028;-84
2022/02/05 04:23:50;;;;;;;11.82;2.25;;;5.20;99.90;;;;;;5060485;28;20024;-83
2022/02/05 04:26:17;;;;;;;13.07;1.65;;;5.20;99.90;;;;;;5077264;28;20054;-84
2022/02/05 04:28:43;;;;;;;13.20;1.63;;;5.20;99.90;;;;;;5095318;28;20028;-85
2022/02/05 04:31:09;;;;;;;9.65;1.90;;;5.20;99.90;;;;;;5077239;28;20035;-84
2022/02/05 04:33:36;;;;;;;10.88;2.08;;;5.20;99.90;;;;;;5077666;28;20348;-85
2022/02/05 04:36:02;;;;;;;11.05;1.88;;;5.20;99.90;;;;;;5077050;28;20062;-84
2022/02/05 04:38:29;;;;;;;10.00;2.08;;;5.20;99.90;;;;;;5077240;28;20024;-85
2022/02/05 04:41:00;;;;;;;12.23;2.05;;;5.20;99.90;;;;;;5060549;28;20799;-84
2022/02/05 04:54:06;;;;;;;10.68;1.70;;;5.20;99.90;;;;;;5095059;28;20039;-84
2022/02/05 04:57:02;;;;;;;10.32;1.77;;;5.30;99.90;;;;;;5062217;28;20574;-84
2022/02/05 05:04:56;;;;;;;12.63;2.22;;;5.20;99.90;;;;;;5076213;28;20036;-84
2022/02/05 05:10:09;;;;;;;10.80;2.05;;;5.20;99.90;;;;;;5075486;28;20083;-83
2022/02/05 05:12:54;;;;;;;14.32;2.05;;;5.20;99.90;;;;;;5076389;28;20073;-83
2022/02/05 05:20:40;;;;;;;7.78;1.67;;;5.30;99.90;;;;;;5094679;28;20043;-84
2022/02/05 05:23:07;;;;;;;8.50;1.65;;;5.30;99.90;;;;;;5076233;28;20020;-84
2022/02/05 05:25:32;;;;;;;12.52;1.92;;;5.30;99.90;;;;;;5076054;28;20036;-84
2022/02/05 05:27:58;;;;;;;12.35;1.85;;;5.30;99.90;;;;;;5059031;28;20032;-83
2022/02/05 05:30:24;;;;;;;9.85;1.63;;;5.30;99.90;;;;;;5059389;28;20111;-83
2022/02/05 05:32:50;;;;;;;11.30;1.80;;;5.30;99.90;;;;;;5075814;28;20467;-84
2022/02/05 05:35:16;;;;;;;13.00;2.03;;;5.30;99.90;;;;;;5059348;28;20082;-84
2022/02/05 05:37:41;;;;;;;15.25;3.08;;;5.40;99.90;;;;;;5072549;28;20057;-88
2022/02/05 05:40:08;;;;;;;9.55;2.22;;;5.30;99.90;;;;;;5073005;28;20360;-85
2022/02/05 05:42:41;;;;;;;15.13;1.90;;;5.30;99.90;;;;;;5056163;28;20124;-84
2022/02/05 05:45:24;;;;;;;33.22;3.25;;;5.40;99.90;;;;;;5072400;28;20090;-84
2022/02/05 05:47:53;;;;;;;8.77;1.58;;;5.40;99.90;;;;;;5058480;28;20028;-84
2022/02/05 05:53:09;;;;;;;10.25;1.85;;;5.40;99.90;;;;;;5073635;28;20372;-84
2022/02/05 05:55:35;;;;;;;10.13;2.20;;;5.30;99.90;;;;;;5073813;28;20423;-84
2022/02/05 05:58:02;;;;;;;9.93;2.20;;;5.30;99.90;;;;;;5072077;28;20024;-85
2022/02/05 06:00:28;;;;;;;11.43;2.20;;;5.30;99.90;;;;;;5072426;28;20059;-84
2022/02/05 06:02:54;;;;;;;9.10;2.03;;;5.30;99.90;;;;;;5072041;28;20036;-83
2022/02/05 06:05:19;;;;;;;10.88;2.28;;;5.30;99.90;;;;;;5073469;28;20036;-84
2022/02/05 06:07:45;;;;;;;10.02;1.80;;;5.30;99.90;;;;;;5071930;28;20384;-90
2022/02/05 06:10:11;;;;;;;13.05;2.08;;;5.20;99.90;;;;;;5072065;28;20035;-84
2022/02/05 06:12:36;;;;;;;14.82;2.00;;;5.20;99.90;;;;;;5072182;28;20032;-85
2022/02/05 06:15:06;;;;;;;10.20;1.90;;;5.30;99.90;;;;;;5054550;28;20032;-85
2022/02/05 06:17:31;;;;;;;13.13;2.20;;;5.20;99.90;;;;;;5072252;28;20109;-85
2022/02/05 06:19:57;;;;;;;21.17;3.95;;;5.30;99.90;;;;;;5072779;28;20075;-83
2022/02/05 06:22:23;;;;;;;11.38;1.75;;;5.30;99.90;;;;;;5055257;28;20023;-84
2022/02/05 06:24:48;;;;;;;10.30;1.92;;;5.20;99.90;;;;;;5071723;28;20063;-84
2022/02/05 06:27:14;;;;;;;11.70;2.42;;;5.30;99.90;;;;;;5071991;28;20063;-83
2022/02/05 06:29:40;;;;;;;11.68;2.53;;;5.30;99.90;;;;;;5071785;28;20028;-84
2022/02/05 06:32:06;;;;;;;16.27;2.42;;;5.30;99.90;;;;;;5071987;28;20032;-84
2022/02/05 06:34:32;;;;;;;12.77;2.53;;;5.20;99.90;;;;;;5071852;28;20119;-84
2022/02/05 06:36:57;;;;;;;12.90;2.90;;;5.20;99.90;;;;;;5054505;28;20099;-85
2022/02/05 06:39:23;;;;;;;7.47;1.98;;;5.30;99.90;;;;;;5071876;28;20107;-83
2022/02/05 06:41:49;;;;;;;12.90;2.38;;;5.30;99.90;;;;;;5072969;28;20025;-89
2022/02/05 06:44:16;;;;;;;13.05;2.25;;;5.30;99.90;;;;;;5071957;28;20031;-83
2022/02/05 06:46:42;;;;;;;7.18;2.08;;;5.30;99.90;;;;;;5070284;28;20051;-84
2022/02/05 06:49:08;;;;;;;18.25;2.40;;;5.30;99.90;;;;;;5048318;28;20032;-84
2022/02/05 06:51:34;;;;;;;8.85;1.98;;;5.30;99.90;;;;;;5065675;28;20119;-83
2022/02/05 06:54:00;;;;;;;13.50;2.00;;;5.30;99.90;;;;;;5066076;28;20180;-84
2022/02/05 06:56:27;;;;;;;12.98;2.28;;;5.30;99.90;;;;;;5060347;28;20051;-83
2022/02/05 06:58:53;;;;;;;10.50;2.70;;;5.30;99.90;;;;;;5056586;28;20519;-84
2022/02/05 07:01:19;;;;;;;10.63;2.28;;;5.30;99.90;;;;;;5052194;28;20029;-83
2022/02/05 07:03:45;;;;;;;11.95;2.33;;;5.30;99.90;;;;;;5051886;28;20025;-84
2022/02/05 07:06:11;;;;;;;12.95;2.33;;;5.30;99.90;;;;;;5034387;28;20045;-83
2022/02/05 07:08:40;;;;;;;10.93;2.00;;;5.30;99.90;;;;;;5034705;28;20037;-83
2022/02/05 07:11:06;;;;;;;16.00;2.78;;;5.30;99.90;;;;;;5052405;28;20504;-83
2022/02/05 07:13:31;;;;;;;10.43;2.67;;;5.30;99.90;;;;;;5034786;28;20029;-84
2022/02/05 07:21:14;;;;;;;9.02;2.20;;;5.20;99.90;;;;;;5071150;28;20062;-84
2022/02/05 07:29:35;;;;;;;13.98;2.97;;;5.20;99.90;;;;;;5076053;28;20090;-84
2022/02/05 07:31:51;;;;;;;14.35;2.83;;;5.30;99.90;;;;;;5067890;28;20068;-84
2022/02/05 07:34:19;;;;;;;11.05;3.35;;;5.20;99.90;;;;;;5076915;28;20108;-83
2022/02/05 07:36:45;;;;;;;7.95;2.95;;;5.20;99.90;;;;;;5077103;28;20048;-86
2022/02/05 07:39:11;;;;;;;15.15;3.17;;;5.20;99.90;;;;;;5075814;28;20403;-83
2022/02/05 07:41:39;;;;;;;10.88;2.70;;;5.20;99.90;;;;;;5074909;28;20021;-84
2022/02/05 07:44:08;;;;;;;13.52;2.90;;;5.20;99.90;;;;;;5075883;28;20027;-83
2022/02/05 07:46:36;;;;;;;13.15;2.70;;;5.20;99.90;;;;;;5058698;28;20396;-83
2022/02/05 07:49:02;;;;;;;7.63;2.53;;;5.20;99.90;;;;;;5058495;28;20028;-86
2022/02/05 07:51:27;;;;;;;10.20;2.20;;;5.20;99.90;;;;;;5076312;28;20032;-84
2022/02/05 07:53:53;;;;;;;12.07;2.90;;;5.20;99.90;;;;;;5058135;28;20033;-83
2022/02/05 07:56:19;;;;;;;15.15;2.67;;;5.20;99.90;;;;;;5057770;28;20464;-83
2022/02/05 07:58:44;;;;;;;8.82;2.78;;;5.20;99.90;;;;;;5057668;28;20028;-86
2022/02/05 08:01:11;;;;;;;10.73;2.55;;;5.20;99.90;;;;;;5075211;28;20024;-84
2022/02/05 08:03:37;;;;;;;13.38;3.00;;;5.20;99.90;;;;;;5074418;28;20040;-83
2022/02/05 08:06:05;;;;;;;9.80;2.90;;;5.20;99.90;;;;;;5074815;28;20028;-84
2022/02/05 08:08:34;;;;;;;11.75;2.80;;;5.20;99.90;;;;;;5056346;28;20044;-84
2022/02/05 08:11:04;;;;;;;15.38;3.70;;;5.20;99.90;;;;;;5073788;28;20119;-85
2022/02/05 08:13:32;;;;;;;17.40;3.47;;;5.20;99.90;;;;;;5058339;28;20472;-84
2022/02/05 08:16:10;;;;;;;15.73;3.50;;;5.20;99.90;;;;;;5057810;28;20496;-84
2022/02/05 08:18:38;;;;;;;10.43;3.00;;;5.30;99.90;;;;;;5074584;28;20377;-85
2022/02/05 08:21:04;;;;;;;14.48;3.97;;;5.20;99.90;;;;;;5072858;28;20055;-84
2022/02/05 08:23:31;;;;;;;11.65;3.63;;;5.20;99.90;;;;;;5074239;28;20024;-84
2022/02/05 08:25:57;;;;;;;10.90;2.97;;;5.20;99.90;;;;;;5041556;28;20059;-84
2022/02/05 08:28:22;;;;;;;14.50;3.47;;;5.20;99.90;;;;;;5074464;28;20063;-83
2022/02/05 08:30:48;;;;;;;13.55;3.88;;;5.10;99.90;;;;;;5057848;28;20492;-83
2022/02/05 08:33:14;;;;;;;12.13;2.90;;;5.30;99.90;;;;;;5057378;28;20033;-84
2022/02/05 08:35:41;;;;;;;13.98;3.33;;;5.20;99.90;;;;;;5057025;28;20025;-83
2022/02/05 08:38:07;;;;;;;16.90;3.78;;;5.20;99.90;;;;;;5040361;28;20045;-84
2022/02/05 08:40:33;;;;;;;15.23;3.15;;;5.20;99.90;;;;;;5024064;28;20029;-83
2022/02/05 08:42:59;;;;;;;11.27;3.17;;;5.20;99.90;;;;;;5074927;28;20346;-84
2022/02/05 08:45:25;;;;;;;15.95;3.88;;;5.30;99.90;;;;;;5074652;28;20036;-83
2022/02/05 08:47:51;;;;;;;11.38;3.75;;;5.30;99.90;;;;;;5057282;28;20387;-83
2022/02/05 08:50:17;;;;;;;14.43;3.47;;;5.30;99.90;;;;;;5040092;28;20025;-83
2022/02/05 08:52:43;;;;;;;10.30;3.70;;;5.40;99.90;;;;;;5023706;28;20485;-82
2022/02/05 08:55:09;;;;;;;17.40;3.95;;;5.40;99.90;;;;;;5023185;28;20025;-84
2022/02/05 08:57:35;;;;;;;12.20;4.13;;;5.40;99.90;;;;;;5056941;28;20016;-83
2022/02/05 09:00:12;;;;;;;12.98;3.40;;;5.40;99.90;;;;;;5056919;28;20032;-83
2022/02/05 09:02:48;;;;;;;12.73;3.35;;;5.50;99.90;;;;;;5040032;28;20025;-83
2022/02/05 09:05:27;;;;;;;11.80;4.15;;;5.50;99.90;;;;;;5056658;28;20058;-82
2022/02/05 09:07:52;;;;;;;12.25;3.53;;;5.60;99.90;;;;;;5043556;28;20052;-83
2022/02/05 09:15:34;;;;;;;12.25;3.72;;;5.70;99.90;;;;;;5059250;28;20039;-83
2022/02/05 09:17:59;;;;;;;10.65;3.80;;;5.80;99.90;;;;;;5039957;28;20036;-84
2022/02/05 09:20:26;;;;;;;13.32;3.30;;;5.80;99.90;;;;;;5056230;28;20469;-84
2022/02/05 09:22:54;;;;;;;16.58;3.63;;;5.90;99.90;;;;;;5039850;28;20095;-83
2022/02/05 09:25:21;;;;;;;11.60;3.28;;;5.90;99.90;;;;;;5039702;28;20032;-83
2022/02/05 09:27:48;;;;;;;10.23;3.00;;;5.90;99.90;;;;;;5056837;28;20074;-82
2022/02/05 09:30:16;;;;;;;13.55;3.53;;;6.00;99.90;;;;;;5074167;28;20035;-83
2022/02/05 09:32:43;;;;;;;22.88;5.95;;;6.10;99.90;;;;;;5056430;28;20112;-83
2022/02/05 09:35:11;;;;;;;13.07;3.17;;;6.10;99.90;;;;;;5074168;28;20040;-83
2022/02/05 09:37:37;;;;;;;13.80;3.17;;;6.20;99.90;;;;;;5056154;28;20044;-83
2022/02/05 09:40:04;;;;;;;10.20;3.17;;;6.30;99.90;;;;;;5074081;28;20039;-82
2022/02/05 09:42:30;;;;;;;11.63;3.00;;;6.40;99.90;;;;;;5073433;28;20021;-83
2022/02/05 09:45:00;;;;;;;10.48;3.30;;;6.50;99.90;;;;;;5055921;28;20449;-83
2022/02/05 09:47:26;;;;;;;12.93;3.63;;;6.50;99.90;;;;;;5039464;28;20086;-84
2022/02/05 09:49:51;;;;;;;15.40;3.28;;;6.50;99.90;;;;;;5055959;28;20485;-83
2022/02/05 09:52:25;;;;;;;13.80;3.17;;;6.60;99.90;;;;;;5055991;28;20427;-83
2022/02/05 09:54:51;;;;;;;10.55;2.78;;;6.70;99.90;;;;;;5073930;28;20031;-83
2022/02/05 09:57:18;;;;;;;12.70;3.17;;;6.70;99.90;;;;;;5073442;28;20024;-84
2022/02/05 09:59:53;;;;;;;12.73;3.38;;;6.80;99.90;;;;;;5056101;28;20029;-83
2022/02/05 10:02:24;;;;;;;9.63;2.65;;;6.80;99.90;;;;;;5054617;28;20020;-85
2022/02/05 10:04:58;;;;;;;17.60;3.72;;;6.90;99.90;;;;;;5055598;28;20128;-83
2022/02/05 10:07:26;;;;;;;13.32;2.95;;;6.90;99.90;;;;;;5055508;28;20118;-83
2022/02/05 10:10:05;;;;;;;11.45;3.17;;;6.90;99.90;;;;;;5055362;28;20016;-84
2022/02/05 10:12:32;;;;;;;9.95;3.13;;;7.00;99.90;;;;;;5038839;28;20033;-82
2022/02/05 10:15:01;;;;;;;11.93;3.08;;;7.00;99.90;;;;;;5055370;28;20028;-83
2022/02/05 10:17:42;;;;;;;12.50;3.40;;;7.10;99.90;;;;;;5055167;28;20362;-83
2022/02/05 10:20:08;;;;;;;13.52;2.78;;;7.20;99.90;;;;;;5055487;28;20067;-83
2022/02/05 10:22:37;;;;;;;8.40;2.38;;;7.20;99.90;;;;;;5055155;28;20025;-84
2022/02/05 10:25:17;;;;;;;13.02;2.50;;;7.30;99.90;;;;;;5072993;28;20028;-83
2022/02/05 10:27:45;;;;;;;17.52;4.03;;;7.30;99.90;;;;;;5055141;28;20028;-83
2022/02/05 10:30:25;;;;;;;13.25;2.67;;;7.40;99.90;;;;;;5055015;28;20025;-83
2022/02/05 10:33:10;;;;;;;11.60;2.90;;;7.50;99.90;;;;;;5055062;28;20036;-83
2022/02/05 10:36:13;;;;;;;11.50;2.15;;;7.50;99.90;;;;;;5054976;28;20094;-83
2022/02/05 10:38:53;;;;;;;13.23;2.75;;;7.60;99.90;;;;;;5072232;28;20052;-84
2022/02/05 10:44:09;;;;;;;13.27;2.90;;;7.80;99.90;;;;;;5073170;28;20032;-84
2022/02/05 10:46:38;;;;;;;13.15;2.85;;;7.80;99.90;;;;;;5039356;28;20361;-84
2022/02/05 10:49:04;;;;;;;14.77;2.80;;;7.90;99.90;;;;;;5054575;28;20060;-83
2022/02/05 10:51:39;;;;;;;10.77;2.60;;;8.00;99.90;;;;;;5037997;28;20031;-84
2022/02/05 10:54:13;;;;;;;15.98;3.10;;;8.10;99.90;;;;;;5054695;28;20024;-83
2022/02/05 10:56:57;;;;;;;9.55;2.47;;;8.10;99.90;;;;;;5054497;28;20036;-83
2022/02/05 10:59:46;;;;;;;9.60;2.33;;;8.10;99.90;;;;;;5072644;28;20472;-85
2022/02/05 11:05:16;;;;;;;11.77;2.58;;;8.20;99.90;;;;;;5076534;28;20072;-83
2022/02/05 11:07:43;;;;;;;16.40;2.30;;;8.20;99.90;;;;;;5058570;28;20484;-83
2022/02/05 11:10:20;;;;;;;12.50;2.35;;;8.30;99.90;;;;;;5042204;28;20365;-84
2022/02/05 11:12:59;;;;;;;8.10;2.00;;;8.30;99.90;;;;;;5043741;28;20028;-83
2022/02/05 11:20:35;;;;;;;16.85;3.05;;;8.40;99.90;;;;;;5047124;28;20396;-83
2022/02/05 11:23:08;;;;;;;13.98;2.55;;;8.30;99.90;;;;;;5058821;28;20028;-83
2022/02/05 11:25:37;;;;;;;12.23;2.53;;;8.40;99.90;;;;;;5058272;28;20040;-84
2022/02/05 11:28:04;;;;;;;13.10;2.60;;;8.30;99.90;;;;;;5058094;28;20040;-83
2022/02/05 11:30:33;;;;;;;11.88;2.53;;;8.30;99.90;;;;;;5058168;28;20025;-83
2022/02/05 11:33:06;;;;;;;9.15;1.95;;;8.40;99.90;;;;;;5041685;28;20024;-83
2022/02/05 11:35:47;;;;;;;7.05;2.08;;;8.40;99.90;;;;;;5076038;28;20107;-83
2022/02/05 11:38:15;;;;;;;12.65;2.25;;;8.40;99.90;;;;;;5042683;28;20079;-83
2022/02/05 11:40:44;;;;;;;9.40;2.10;;;8.50;99.90;;;;;;5076119;28;20067;-85
2022/02/05 11:43:25;;;;;;;14.57;2.78;;;8.50;99.90;;;;;;5074822;28;20119;-83
2022/02/05 11:46:11;;;;;;;7.30;1.77;;;8.50;99.90;;;;;;5057979;28;20034;-84
2022/02/05 11:48:37;;;;;;;14.15;2.38;;;8.50;99.90;;;;;;5075574;28;20027;-83
2022/02/05 11:51:14;;;;;;;10.65;2.20;;;8.50;99.90;;;;;;5075794;28;20148;-83
2022/02/05 11:53:55;;;;;;;10.20;2.50;;;8.50;99.90;;;;;;5057711;28;20052;-83
2022/02/05 11:56:23;;;;;;;9.77;2.90;;;8.40;99.90;;;;;;5075563;28;20384;-84
2022/02/05 11:58:58;;;;;;;16.48;3.50;;;8.50;99.90;;;;;;5075682;28;20025;-83
2022/02/05 12:01:38;;;;;;;12.73;2.40;;;8.60;99.90;;;;;;5041209;28;20043;-84
2022/02/05 12:04:12;;;;;;;13.82;2.80;;;8.70;99.90;;;;;;5075677;28;20085;-83
2022/02/05 12:06:46;;;;;;;11.98;3.00;;;8.80;99.90;;;;;;5057376;28;20469;-83
2022/02/05 12:09:33;;;;;;;12.35;2.58;;;8.90;99.90;;;;;;5056689;28;20043;-84
2022/02/05 12:15:18;;;;;;;8.63;1.83;;;9.20;99.90;;;;;;5074697;28;20373;-84
2022/02/05 12:20:34;;;;;;;9.93;2.47;;;9.40;99.90;;;;;;5057723;28;20044;-83
2022/02/05 12:23:14;;;;;;;10.80;2.95;;;9.50;99.90;;;;;;5040967;28;20043;-83
2022/02/05 12:25:58;;;;;;;16.25;1.88;;;9.50;99.90;;;;;;5058677;28;20032;-83
2022/02/05 12:28:34;;;;;;;9.40;2.05;;;9.60;99.90;;;;;;5056815;28;20044;-83
2022/02/05 12:31:01;;;;;;;10.20;1.80;;;9.60;99.90;;;;;;5057206;28;20021;-83
2022/02/05 12:33:46;;;;;;;10.05;2.13;;;9.50;99.90;;;;;;5075231;28;20117;-83
2022/02/05 12:36:13;;;;;;;15.82;2.03;;;9.40;99.90;;;;;;5074990;28;20140;-83
2022/02/05 12:38:40;;;;;;;9.55;2.30;;;9.40;99.90;;;;;;5040437;28;20377;-83
2022/02/05 12:41:07;;;;;;;10.80;2.40;;;9.30;99.90;;;;;;5040373;28;20392;-83
2022/02/05 12:43:49;;;;;;;7.82;1.98;;;9.20;99.90;;;;;;5056822;28;20380;-83
2022/02/05 12:46:15;;;;;;;8.70;1.88;;;9.20;99.90;;;;;;5040257;28;20195;-83
2022/02/05 12:48:47;;;;;;;10.65;3.10;;;9.20;99.90;;;;;;5056754;28;20035;-83
2022/02/05 12:51:13;;;;;;;9.02;2.13;;;9.20;99.90;;;;;;5056867;28;20162;-83
2022/02/05 12:53:40;;;;;;;12.07;3.00;;;9.20;99.90;;;;;;5074615;28;20016;-83
2022/02/05 12:56:33;;;;;;;11.95;2.83;;;9.20;99.90;;;;;;5074634;28;20487;-83
2022/02/05 12:59:03;;;;;;;9.95;2.10;;;9.10;99.90;;;;;;5074436;28;20492;-83
2022/02/05 13:01:30;;;;;;;11.73;2.28;;;9.20;99.90;;;;;;5056471;28;20021;-86
2022/02/05 13:04:11;;;;;;;10.43;2.65;;;9.20;99.90;;;;;;5074576;28;20024;-83
2022/02/05 13:06:36;;;;;;;10.10;2.25;;;9.30;99.90;;;;;;5074237;28;20024;-83
2022/02/05 13:09:02;;;;;;;11.48;2.88;;;9.40;99.90;;;;;;5039950;28;20072;-84
2022/02/05 13:11:30;;;;;;;9.70;2.33;;;9.40;99.90;;;;;;5056524;28;20465;-83
2022/02/05 13:13:56;;;;;;;9.80;2.05;;;9.40;99.90;;;;;;5040152;28;20027;-83
2022/02/05 13:16:24;;;;;;;9.68;2.17;;;9.50;99.90;;;;;;5055893;28;20249;-83
2022/02/05 13:19:22;;;;;;;13.40;2.30;;;9.50;99.90;;;;;;5039484;28;20559;-83
2022/02/05 13:28:29;;;;;;;10.65;3.15;;;9.70;99.90;;;;;;5058705;28;20044;-83
2022/02/05 13:36:08;;;;;;;11.10;2.17;;;9.90;99.90;;;;;;5073424;28;20407;-83
2022/02/05 13:38:56;;;;;;;10.05;1.88;;;10.00;99.90;;;;;;5055450;28;20032;-84
2022/02/05 13:41:33;;;;;;;8.45;2.20;;;9.90;99.90;;;;;;5042549;28;20066;-84
2022/02/05 13:43:59;;;;;;;8.90;2.05;;;10.00;99.90;;;;;;5041698;28;20055;-84
2022/02/05 13:46:26;;;;;;;10.05;2.20;;;9.90;99.90;;;;;;5039268;28;20064;-83
2022/02/05 13:48:52;;;;;;;8.05;1.88;;;9.90;99.90;;;;;;5055471;28;20455;-83
2022/02/05 13:51:18;;;;;;;11.65;3.88;;;9.80;99.90;;;;;;5022675;28;20032;-84
2022/02/05 13:53:48;;;;;;;10.82;3.40;;;9.80;99.90;;;;;;5072871;28;20491;-84
2022/02/05 13:56:14;;;;;;;11.40;3.97;;;9.80;99.90;;;;;;5055696;28;20037;-83
2022/02/05 13:58:40;;;;;;;11.07;2.38;;;9.70;99.90;;;;;;5038880;28;20035;-84
2022/02/05 14:01:06;;;;;;;11.23;3.30;;;9.70;99.90;;;;;;5055436;28;20020;-83
2022/02/05 14:03:34;;;;;;;9.50;3.53;;;9.70;99.90;;;;;;5055394;28;20465;-84
2022/02/05 14:06:10;;;;;;;8.55;1.92;;;9.60;99.90;;;;;;5055208;28;20384;-83
2022/02/05 14:08:37;;;;;;;7.93;3.25;;;9.60;99.90;;;;;;5055209;28;20048;-85
2022/02/05 14:11:05;;;;;;;11.85;3.20;;;9.60;99.90;;;;;;5073270;28;20051;-83
2022/02/05 14:13:32;;;;;;;10.05;1.90;;;9.60;99.90;;;;;;5073525;28;20051;-83
2022/02/05 14:16:01;;;;;;;11.65;2.42;;;9.60;99.90;;;;;;5022079;28;20449;-84
2022/02/05 14:18:29;;;;;;;11.60;2.50;;;9.60;99.90;;;;;;5055184;28;20427;-84
2022/02/05 14:20:56;;;;;;;12.52;2.60;;;9.60;99.90;;;;;;5055475;28;20032;-83
2022/02/05 14:23:24;;;;;;;9.57;2.25;;;9.60;99.90;;;;;;5072991;28;20054;-84
2022/02/05 14:25:53;;;;;;;8.27;2.58;;;9.50;99.90;;;;;;5072760;28;20020;-84
2022/02/05 14:28:32;;;;;;;10.82;2.25;;;9.60;99.90;;;;;;5054817;28;20021;-83
2022/02/05 14:31:13;;;;;;;11.80;2.67;;;9.50;99.90;;;;;;5055050;28;20024;-84
2022/02/05 14:42:07;;;;;;;10.38;3.33;;;9.40;99.90;;;;;;5073095;28;20095;-83
2022/02/05 14:44:34;;;;;;;9.75;2.78;;;9.40;99.90;;;;;;5054897;28;20021;-83
2022/02/05 14:46:59;;;;;;;9.82;2.13;;;9.40;99.90;;;;;;5038118;28;20106;-83
2022/02/05 14:49:26;;;;;;;5.55;1.85;;;9.40;99.90;;;;;;5054912;28;20453;-83
2022/02/05 14:51:51;;;;;;;13.52;2.85;;;9.50;99.90;;;;;;5038050;28;20060;-83
2022/02/05 14:54:18;;;;;;;8.80;2.33;;;9.50;99.90;;;;;;5038333;28;20463;-83
2022/02/05 14:56:43;;;;;;;7.28;2.13;;;9.50;99.90;;;;;;5054742;28;20016;-84
2022/02/05 14:59:09;;;;;;;9.65;2.10;;;9.50;99.90;;;;;;5038426;28;20032;-83
2022/02/05 15:01:36;;;;;;;9.02;3.03;;;9.50;99.90;;;;;;5038496;28;20095;-84
2022/02/05 15:04:01;;;;;;;5.10;2.15;;;9.50;99.90;;;;;;5054532;28;20024;-83
2022/02/05 15:06:30;;;;;;;9.27;2.75;;;9.40;99.90;;;;;;5054634;28;20050;-83
2022/02/05 15:08:58;;;;;;;8.93;2.17;;;9.40;99.90;;;;;;5022433;28;20472;-84
2022/02/05 15:11:26;;;;;;;10.38;2.33;;;9.40;99.90;;;;;;5053990;28;20020;-83
2022/02/05 15:13:56;;;;;;;8.25;1.90;;;9.40;99.90;;;;;;5021493;28;20029;-84
2022/02/05 15:16:23;;;;;;;12.02;2.72;;;9.30;99.90;;;;;;5054879;28;20055;-83
2022/02/05 15:18:53;;;;;;;9.63;1.98;;;9.30;99.90;;;;;;5037811;28;20025;-82
2022/02/05 15:21:22;;;;;;;15.80;2.67;;;9.30;99.90;;;;;;5055904;28;20031;-83
2022/02/05 15:23:49;;;;;;;9.52;2.55;;;9.30;99.90;;;;;;5038510;28;20067;-83
2022/02/05 15:26:16;;;;;;;11.32;2.92;;;9.40;99.90;;;;;;5054588;28;20028;-83
2022/02/05 15:28:48;;;;;;;7.50;2.13;;;9.40;99.90;;;;;;5072353;28;20048;-83
2022/02/05 15:31:15;;;;;;;11.73;2.00;;;9.40;99.90;;;;;;5054041;28;20063;-84
2022/02/05 15:33:43;;;;;;;9.43;2.17;;;9.30;99.90;;;;;;5053707;28;20029;-84
2022/02/05 15:36:11;;;;;;;10.93;1.90;;;9.30;99.90;;;;;;5072187;28;20131;-83
2022/02/05 15:44:05;;;;;;;8.82;2.25;;;9.30;99.90;;;;;;5072370;28;20326;-83
2022/02/05 15:46:31;;;;;;;16.50;3.40;;;9.20;99.90;;;;;;5021430;28;20028;-83
2022/02/05 15:48:57;;;;;;;6.57;1.92;;;9.20;99.90;;;;;;5040577;28;20024;-83
2022/02/05 15:51:25;;;;;;;8.02;2.20;;;9.20;99.90;;;;;;5041271;28;20167;-83
2022/02/05 15:53:56;;;;;;;9.15;2.15;;;9.20;99.90;;;;;;5075604;28;20083;-84
2022/02/05 15:59:10;;;;;;;10.18;2.78;;;9.20;99.90;;;;;;5060388;28;20039;-83
2022/02/05 16:01:35;;;;;;;9.48;2.35;;;9.10;99.90;;;;;;5075537;28;20111;-83
2022/02/05 16:04:01;;;;;;;9.88;2.00;;;9.10;99.90;;;;;;5074695;28;20067;-83
2022/02/05 16:06:27;;;;;;;9.65;1.98;;;9.10;99.90;;;;;;5057378;28;20022;-83